sensor_id;sensor_type;location;lat;lon;timestamp;pressure;altitude;pressure_sealevel;temperature;humidity
49627;BME280;35527;54.616;39.786;2023-04-02T00:00:25;99575.78;;;6.18;100.00
49627;BME280;35527;54.616;39.786;2023-04-02T00:06:45;99612.88;;;6.41;100.00
49627;BME280;35527;54.616;39.786;2023-04-02T00:09:49;99606.94;;;6.39;100.00
49627;BME280;35527;54.616;39.786;2023-04-02T00:13:04;99617.47;;;6.62;100.00
49627;BME280;35527;54.616;39.786;2023-04-02T00:16:22;99607.28;;;6.58;100.00
49627;BME280;35527;54.616;39.786;2023-04-02T00:22:52;99630.72;;;6.47;100.00
49627;BME280;35527;54.616;39.786;2023-04-02T00:25:56;99628.34;;;6.39;100.00
49627;BME280;35527;54.616;39.786;2023-04-02T00:29:04;99623.13;;;6.42;100.00
49627;BME280;35527;54.616;39.786;2023-04-02T00:32:16;99606.97;;;6.37;100.00
49627;BME280;35527;54.616;39.786;2023-04-02T00:35:26;99614.72;;;6.36;100.00
49627;BME280;35527;54.616;39.786;2023-04-02T00:38:32;99610.94;;;6.15;100.00
49627;BME280;35527;54.616;39.786;2023-04-02T00:41:39;99620.22;;;6.20;100.00
49627;BME280;35527;54.616;39.786;2023-04-02T00:44:49;99610.34;;;6.05;100.00
49627;BME280;35527;54.616;39.786;2023-04-02T00:47:52;99629.00;;;6.12;100.00
49627;BME280;35527;54.616;39.786;2023-04-02T00:51:11;99610.34;;;6.03;100.00
49627;BME280;35527;54.616;39.786;2023-04-02T00:54:17;99640.13;;;6.12;100.00
49627;BME280;35527;54.616;39.786;2023-04-02T00:57:25;99628.00;;;6.19;100.00
49627;BME280;35527;54.616;39.786;2023-04-02T01:00:35;99635.50;;;6.26;100.00
49627;BME280;35527;54.616;39.786;2023-04-02T01:03:38;99623.88;;;6.12;100.00
49627;BME280;35527;54.616;39.786;2023-04-02T01:06:43;99614.94;;;6.26;100.00
49627;BME280;35527;54.616;39.786;2023-04-02T01:10:12;99634.41;;;6.37;100.00
49627;BME280;35527;54.616;39.786;2023-04-02T01:13:31;99624.53;;;6.20;100.00
49627;BME280;35527;54.616;39.786;2023-04-02T01:29:57;99621.75;;;5.92;100.00
49627;BME280;35527;54.616;39.786;2023-04-02T01:33:04;99620.28;;;5.81;100.00
49627;BME280;35527;54.616;39.786;2023-04-02T01:36:21;99647.78;;;5.76;100.00
49627;BME280;35527;54.616;39.786;2023-04-02T01:46:29;99616.03;;;5.41;100.00
49627;BME280;35527;54.616;39.786;2023-04-02T01:49:33;99609.97;;;5.44;100.00
49627;BME280;35527;54.616;39.786;2023-04-02T01:52:40;99599.28;;;5.62;100.00
49627;BME280;35527;54.616;39.786;2023-04-02T01:56:00;99641.25;;;5.61;100.00
49627;BME280;35527;54.616;39.786;2023-04-02T01:59:04;99637.88;;;5.58;100.00
49627;BME280;35527;54.616;39.786;2023-04-02T02:02:13;99629.22;;;5.63;100.00
49627;BME280;35527;54.616;39.786;2023-04-02T02:05:20;99638.19;;;5.84;100.00
49627;BME280;35527;54.616;39.786;2023-04-02T02:08:38;99638.13;;;5.86;100.00
49627;BME280;35527;54.616;39.786;2023-04-02T02:11:43;99640.16;;;5.72;100.00
49627;BME280;35527;54.616;39.786;2023-04-02T02:14:48;99615.88;;;5.48;100.00
49627;BME280;35527;54.616;39.786;2023-04-02T02:18:00;99610.13;;;5.38;100.00
49627;BME280;35527;54.616;39.786;2023-04-02T02:21:06;99632.34;;;5.37;100.00
49627;BME280;35527;54.616;39.786;2023-04-02T02:24:19;99645.03;;;5.45;100.00
49627;BME280;35527;54.616;39.786;2023-04-02T02:30:49;99647.31;;;5.57;100.00
49627;BME280;35527;54.616;39.786;2023-04-02T02:34:02;99649.94;;;5.54;100.00
49627;BME280;35527;54.616;39.786;2023-04-02T02:37:21;99644.94;;;5.48;100.00
49627;BME280;35527;54.616;39.786;2023-04-02T02:40:33;99635.78;;;5.38;100.00
49627;BME280;35527;54.616;39.786;2023-04-02T02:43:43;99640.38;;;5.62;100.00
49627;BME280;35527;54.616;39.786;2023-04-02T02:46:53;99663.63;;;5.55;100.00
49627;BME280;35527;54.616;39.786;2023-04-02T02:50:03;99644.72;;;5.59;100.00
49627;BME280;35527;54.616;39.786;2023-04-02T02:53:19;99658.50;;;5.55;100.00
49627;BME280;35527;54.616;39.786;2023-04-02T02:56:23;99644.88;;;5.53;100.00
49627;BME280;35527;54.616;39.786;2023-04-02T02:59:28;99659.84;;;5.73;100.00
49627;BME280;35527;54.616;39.786;2023-04-02T03:02:35;99637.38;;;5.42;100.00
49627;BME280;35527;54.616;39.786;2023-04-02T03:05:43;99647.94;;;5.69;100.00
49627;BME280;35527;54.616;39.786;2023-04-02T03:09:18;99638.63;;;5.64;100.00
49627;BME280;35527;54.616;39.786;2023-04-02T03:12:36;99674.28;;;5.78;100.00
49627;BME280;35527;54.616;39.786;2023-04-02T03:15:52;99654.28;;;5.91;100.00
49627;BME280;35527;54.616;39.786;2023-04-02T03:22:28;99657.06;;;5.82;100.00
49627;BME280;35527;54.616;39.786;2023-04-02T03:29:09;99655.97;;;5.53;100.00
49627;BME280;35527;54.616;39.786;2023-04-02T03:32:25;99674.91;;;5.48;100.00
49627;BME280;35527;54.616;39.786;2023-04-02T03:38:40;99692.59;;;5.61;100.00
49627;BME280;35527;54.616;39.786;2023-04-02T03:41:53;99703.00;;;5.55;100.00
49627;BME280;35527;54.616;39.786;2023-04-02T03:45:13;99675.00;;;5.43;100.00
49627;BME280;35527;54.616;39.786;2023-04-02T03:48:42;99704.75;;;5.52;100.00
49627;BME280;35527;54.616;39.786;2023-04-02T03:52:23;99699.41;;;5.64;100.00
49627;BME280;35527;54.616;39.786;2023-04-02T03:55:32;99661.59;;;5.29;100.00
49627;BME280;35527;54.616;39.786;2023-04-02T03:58:43;99686.66;;;5.59;100.00
49627;BME280;35527;54.616;39.786;2023-04-02T04:01:58;99704.34;;;5.72;100.00
49627;BME280;35527;54.616;39.786;2023-04-02T04:05:04;99707.88;;;5.66;100.00
49627;BME280;35527;54.616;39.786;2023-04-02T04:08:19;99711.91;;;5.79;100.00
49627;BME280;35527;54.616;39.786;2023-04-02T04:11:27;99712.97;;;5.69;100.00
49627;BME280;35527;54.616;39.786;2023-04-02T04:14:36;99702.94;;;5.57;100.00
49627;BME280;35527;54.616;39.786;2023-04-02T04:21:22;99726.75;;;5.63;100.00
49627;BME280;35527;54.616;39.786;2023-04-02T04:24:40;99697.97;;;5.49;100.00
49627;BME280;35527;54.616;39.786;2023-04-02T04:28:29;99713.16;;;5.60;100.00
49627;BME280;35527;54.616;39.786;2023-04-02T04:31:32;99714.81;;;5.64;100.00
49627;BME280;35527;54.616;39.786;2023-04-02T04:34:45;99718.28;;;5.60;100.00
49627;BME280;35527;54.616;39.786;2023-04-02T04:38:09;99698.34;;;5.73;100.00
49627;BME280;35527;54.616;39.786;2023-04-02T04:41:17;99721.53;;;5.70;100.00
49627;BME280;35527;54.616;39.786;2023-04-02T04:47:48;99713.34;;;5.93;100.00
49627;BME280;35527;54.616;39.786;2023-04-02T04:51:03;99703.00;;;5.55;100.00
49627;BME280;35527;54.616;39.786;2023-04-02T04:54:11;99715.53;;;5.69;100.00
49627;BME280;35527;54.616;39.786;2023-04-02T05:07:28;99713.13;;;6.03;100.00
49627;BME280;35527;54.616;39.786;2023-04-02T05:10:59;99713.66;;;6.18;100.00
49627;BME280;35527;54.616;39.786;2023-04-02T05:14:15;99716.16;;;6.21;100.00
49627;BME280;35527;54.616;39.786;2023-04-02T05:17:30;99718.06;;;6.13;100.00
49627;BME280;35527;54.616;39.786;2023-04-02T05:21:37;99699.19;;;6.14;100.00
49627;BME280;35527;54.616;39.786;2023-04-02T05:24:39;99714.91;;;6.39;100.00
49627;BME280;35527;54.616;39.786;2023-04-02T05:31:34;99718.84;;;6.52;100.00
49627;BME280;35527;54.616;39.786;2023-04-02T05:34:47;99707.13;;;6.40;100.00
49627;BME280;35527;54.616;39.786;2023-04-02T05:37:52;99740.81;;;6.67;100.00
49627;BME280;35527;54.616;39.786;2023-04-02T05:41:05;99715.19;;;6.62;100.00
49627;BME280;35527;54.616;39.786;2023-04-02T05:44:11;99736.88;;;6.86;100.00
49627;BME280;35527;54.616;39.786;2023-04-02T05:47:25;99721.91;;;7.02;100.00
49627;BME280;35527;54.616;39.786;2023-04-02T05:50:34;99739.41;;;7.20;100.00
49627;BME280;35527;54.616;39.786;2023-04-02T05:53:58;99714.88;;;7.40;100.00
49627;BME280;35527;54.616;39.786;2023-04-02T05:57:05;99710.50;;;7.11;100.00
49627;BME280;35527;54.616;39.786;2023-04-02T06:00:20;99704.28;;;6.87;100.00
49627;BME280;35527;54.616;39.786;2023-04-02T06:06:58;99711.34;;;7.11;100.00
49627;BME280;35527;54.616;39.786;2023-04-02T06:10:17;99707.25;;;7.35;100.00
49627;BME280;35527;54.616;39.786;2023-04-02T06:13:28;99723.66;;;7.33;100.00
49627;BME280;35527;54.616;39.786;2023-04-02T06:16:31;99734.50;;;7.11;100.00
49627;BME280;35527;54.616;39.786;2023-04-02T06:19:37;99731.91;;;7.13;100.00
49627;BME280;35527;54.616;39.786;2023-04-02T06:22:42;99722.81;;;6.99;100.00
49627;BME280;35527;54.616;39.786;2023-04-02T06:29:34;99725.50;;;6.95;100.00
49627;BME280;35527;54.616;39.786;2023-04-02T06:32:49;99731.91;;;7.13;100.00
49627;BME280;35527;54.616;39.786;2023-04-02T06:35:59;99727.47;;;7.51;100.00
49627;BME280;35527;54.616;39.786;2023-04-02T06:39:16;99752.38;;;7.17;100.00
49627;BME280;35527;54.616;39.786;2023-04-02T06:42:26;99751.59;;;7.15;100.00
49627;BME280;35527;54.616;39.786;2023-04-02T06:46:05;99743.81;;;7.17;100.00
49627;BME280;35527;54.616;39.786;2023-04-02T06:49:32;99725.53;;;7.26;100.00
49627;BME280;35527;54.616;39.786;2023-04-02T06:52:50;99739.78;;;7.39;100.00
49627;BME280;35527;54.616;39.786;2023-04-02T06:59:19;99714.19;;;7.64;100.00
49627;BME280;35527;54.616;39.786;2023-04-02T07:02:31;99722.41;;;8.07;100.00
49627;BME280;35527;54.616;39.786;2023-04-02T07:05:42;99740.09;;;8.74;99.91
49627;BME280;35527;54.616;39.786;2023-04-02T07:08:45;99748.47;;;9.79;92.37
49627;BME280;35527;54.616;39.786;2023-04-02T07:11:53;99739.69;;;9.83;86.97
49627;BME280;35527;54.616;39.786;2023-04-02T07:14:57;99753.03;;;9.96;85.40
49627;BME280;35527;54.616;39.786;2023-04-02T07:18:01;99769.56;;;9.67;85.50
49627;BME280;35527;54.616;39.786;2023-04-02T07:21:04;99767.47;;;9.05;89.64
49627;BME280;35527;54.616;39.786;2023-04-02T07:24:08;99755.25;;;8.83;93.34
49627;BME280;35527;54.616;39.786;2023-04-02T07:27:15;99733.34;;;8.95;94.14
49627;BME280;35527;54.616;39.786;2023-04-02T07:30:22;99761.72;;;8.96;94.19
49627;BME280;35527;54.616;39.786;2023-04-02T07:33:28;99761.53;;;9.01;94.19
49627;BME280;35527;54.616;39.786;2023-04-02T07:36:33;99745.59;;;8.63;95.27
49627;BME280;35527;54.616;39.786;2023-04-02T07:39:39;99759.28;;;8.65;96.56
49627;BME280;35527;54.616;39.786;2023-04-02T07:42:42;99760.03;;;8.41;97.54
49627;BME280;35527;54.616;39.786;2023-04-02T07:45:45;99762.84;;;8.33;98.64
49627;BME280;35527;54.616;39.786;2023-04-02T07:48:49;99756.25;;;8.24;99.52
49627;BME280;35527;54.616;39.786;2023-04-02T07:51:54;99732.78;;;8.04;100.00
49627;BME280;35527;54.616;39.786;2023-04-02T07:54:56;99750.69;;;8.37;100.00
49627;BME280;35527;54.616;39.786;2023-04-02T07:58:00;99756.53;;;8.43;100.00
49627;BME280;35527;54.616;39.786;2023-04-02T08:01:03;99737.84;;;8.35;100.00
49627;BME280;35527;54.616;39.786;2023-04-02T08:04:19;99747.41;;;8.31;100.00
49627;BME280;35527;54.616;39.786;2023-04-02T08:07:22;99743.56;;;8.17;100.00
49627;BME280;35527;54.616;39.786;2023-04-02T08:10:25;99735.25;;;8.35;100.00
49627;BME280;35527;54.616;39.786;2023-04-02T08:13:31;99742.13;;;8.64;100.00
49627;BME280;35527;54.616;39.786;2023-04-02T08:17:02;99745.75;;;8.59;100.00
49627;BME280;35527;54.616;39.786;2023-04-02T08:20:13;99744.59;;;8.67;100.00
49627;BME280;35527;54.616;39.786;2023-04-02T08:23:17;99740.47;;;8.88;99.55
49627;BME280;35527;54.616;39.786;2023-04-02T08:26:26;99745.66;;;9.13;99.10
49627;BME280;35527;54.616;39.786;2023-04-02T08:29:33;99743.72;;;9.18;97.19
49627;BME280;35527;54.616;39.786;2023-04-02T08:32:37;99737.91;;;9.13;97.19
49627;BME280;35527;54.616;39.786;2023-04-02T08:35:45;99743.66;;;9.21;97.36
49627;BME280;35527;54.616;39.786;2023-04-02T08:38:49;99746.78;;;9.30;96.40
49627;BME280;35527;54.616;39.786;2023-04-02T08:42:16;99738.28;;;9.02;96.94
49627;BME280;35527;54.616;39.786;2023-04-02T08:48:51;99730.09;;;8.63;100.00
49627;BME280;35527;54.616;39.786;2023-04-02T08:51:58;99746.91;;;9.01;100.00
49627;BME280;35527;54.616;39.786;2023-04-02T08:55:03;99762.25;;;9.31;98.19
49627;BME280;35527;54.616;39.786;2023-04-02T08:58:57;99749.06;;;9.39;95.95
49627;BME280;35527;54.616;39.786;2023-04-02T09:02:26;99743.81;;;9.65;95.16
49627;BME280;35527;54.616;39.786;2023-04-02T09:05:35;99761.28;;;9.59;94.66
49627;BME280;35527;54.616;39.786;2023-04-02T09:08:42;99744.31;;;9.75;92.83
49627;BME280;35527;54.616;39.786;2023-04-02T09:12:12;99757.16;;;10.00;89.86
49627;BME280;35527;54.616;39.786;2023-04-02T09:15:33;99756.50;;;10.41;87.32
49627;BME280;35527;54.616;39.786;2023-04-02T09:18:37;99733.78;;;10.69;83.50
49627;BME280;35527;54.616;39.786;2023-04-02T09:21:51;99751.72;;;11.56;78.03
49627;BME280;35527;54.616;39.786;2023-04-02T09:25:02;99749.34;;;11.70;75.49
49627;BME280;35527;54.616;39.786;2023-04-02T09:28:09;99753.03;;;12.04;73.16
49627;BME280;35527;54.616;39.786;2023-04-02T09:31:22;99758.66;;;12.13;71.37
49627;BME280;35527;54.616;39.786;2023-04-02T09:34:31;99751.41;;;11.82;70.93
49627;BME280;35527;54.616;39.786;2023-04-02T09:37:36;99764.78;;;11.13;75.31
49627;BME280;35527;54.616;39.786;2023-04-02T09:40:50;99762.97;;;11.15;77.16
49627;BME280;35527;54.616;39.786;2023-04-02T09:44:22;99769.88;;;10.94;77.82
49627;BME280;35527;54.616;39.786;2023-04-02T09:47:25;99773.78;;;11.04;78.89
49627;BME280;35527;54.616;39.786;2023-04-02T09:50:33;99775.16;;;11.13;76.94
49627;BME280;35527;54.616;39.786;2023-04-02T09:53:44;99741.84;;;10.83;78.34
49627;BME280;35527;54.616;39.786;2023-04-02T09:57:30;99764.34;;;10.81;78.05
49627;BME280;35527;54.616;39.786;2023-04-02T10:00:37;99768.47;;;11.08;78.12
49627;BME280;35527;54.616;39.786;2023-04-02T10:03:43;99757.88;;;11.53;75.31
49627;BME280;35527;54.616;39.786;2023-04-02T10:06:49;99754.84;;;11.83;71.98
49627;BME280;35527;54.616;39.786;2023-04-02T10:10:20;99759.41;;;12.34;68.15
49627;BME280;35527;54.616;39.786;2023-04-02T10:13:59;99746.94;;;11.86;66.52
49627;BME280;35527;54.616;39.786;2023-04-02T10:17:16;99764.22;;;11.66;67.83
49627;BME280;35527;54.616;39.786;2023-04-02T10:20:25;99767.34;;;11.54;68.03
49627;BME280;35527;54.616;39.786;2023-04-02T10:23:33;99770.22;;;11.67;64.41
49627;BME280;35527;54.616;39.786;2023-04-02T10:33:23;99765.16;;;12.58;60.19
49627;BME280;35527;54.616;39.786;2023-04-02T10:37:06;99784.75;;;12.66;59.19
49627;BME280;35527;54.616;39.786;2023-04-02T10:50:35;99766.06;;;12.94;56.09
49627;BME280;35527;54.616;39.786;2023-04-02T10:57:36;99754.69;;;12.96;56.07
49627;BME280;35527;54.616;39.786;2023-04-02T11:00:43;99758.41;;;13.43;52.80
49627;BME280;35527;54.616;39.786;2023-04-02T11:03:51;99762.09;;;13.72;49.55
49627;BME280;35527;54.616;39.786;2023-04-02T11:07:06;99762.06;;;14.05;48.33
49627;BME280;35527;54.616;39.786;2023-04-02T11:10:19;99748.28;;;15.11;47.79
49627;BME280;35527;54.616;39.786;2023-04-02T11:16:27;99747.78;;;15.92;43.49
49627;BME280;35527;54.616;39.786;2023-04-02T11:19:33;99743.13;;;15.97;43.59
49627;BME280;35527;54.616;39.786;2023-04-02T11:22:37;99739.47;;;15.99;42.72
49627;BME280;35527;54.616;39.786;2023-04-02T11:25:43;99750.28;;;15.79;42.84
49627;BME280;35527;54.616;39.786;2023-04-02T11:38:48;99765.41;;;14.55;44.16
49627;BME280;35527;54.616;39.786;2023-04-02T11:42:02;99754.56;;;14.15;46.50
49627;BME280;35527;54.616;39.786;2023-04-02T11:48:34;99749.31;;;14.16;47.21
49627;BME280;35527;54.616;39.786;2023-04-02T11:54:44;99731.94;;;14.47;45.96
49627;BME280;35527;54.616;39.786;2023-04-02T12:01:41;99717.84;;;14.51;44.27
49627;BME280;35527;54.616;39.786;2023-04-02T12:12:26;99748.63;;;14.29;46.16
49627;BME280;35527;54.616;39.786;2023-04-02T12:15:46;99735.16;;;14.05;46.48
49627;BME280;35527;54.616;39.786;2023-04-02T12:18:51;99745.91;;;13.98;45.77
49627;BME280;35527;54.616;39.786;2023-04-02T12:21:58;99752.97;;;13.81;46.29
49627;BME280;35527;54.616;39.786;2023-04-02T12:25:06;99735.91;;;13.59;44.69
49627;BME280;35527;54.616;39.786;2023-04-02T12:28:22;99758.59;;;13.56;46.65
49627;BME280;35527;54.616;39.786;2023-04-02T12:31:25;99752.25;;;13.28;47.51
49627;BME280;35527;54.616;39.786;2023-04-02T12:34:29;99750.06;;;13.01;47.82
49627;BME280;35527;54.616;39.786;2023-04-02T12:37:33;99760.78;;;12.78;47.89
49627;BME280;35527;54.616;39.786;2023-04-02T12:40:39;99755.34;;;12.65;48.43
49627;BME280;35527;54.616;39.786;2023-04-02T12:43:42;99751.81;;;12.66;47.77
49627;BME280;35527;54.616;39.786;2023-04-02T12:46:47;99756.19;;;12.66;48.55
49627;BME280;35527;54.616;39.786;2023-04-02T12:49:53;99754.78;;;12.58;49.22
49627;BME280;35527;54.616;39.786;2023-04-02T12:52:59;99729.47;;;12.45;49.39
49627;BME280;35527;54.616;39.786;2023-04-02T12:56:04;99761.41;;;12.47;50.15
49627;BME280;35527;54.616;39.786;2023-04-02T12:59:33;99752.84;;;12.45;50.10
49627;BME280;35527;54.616;39.786;2023-04-02T13:02:48;99750.25;;;12.45;50.69
49627;BME280;35527;54.616;39.786;2023-04-02T13:05:54;99748.47;;;12.28;51.25
49627;BME280;35527;54.616;39.786;2023-04-02T13:09:01;99750.34;;;12.24;51.92
49627;BME280;35527;54.616;39.786;2023-04-02T13:12:25;99748.28;;;12.13;51.71
49627;BME280;35527;54.616;39.786;2023-04-02T13:15:32;99750.88;;;12.13;52.64
49627;BME280;35527;54.616;39.786;2023-04-02T13:18:38;99734.97;;;12.02;52.92
49627;BME280;35527;54.616;39.786;2023-04-02T13:21:42;99757.09;;;12.09;52.71
49627;BME280;35527;54.616;39.786;2023-04-02T13:24:47;99753.97;;;12.03;53.32
49627;BME280;35527;54.616;39.786;2023-04-02T13:27:50;99730.06;;;11.96;53.57
49627;BME280;35527;54.616;39.786;2023-04-02T13:30:57;99732.97;;;12.07;53.50
49627;BME280;35527;54.616;39.786;2023-04-02T13:34:01;99743.34;;;12.07;53.57
49627;BME280;35527;54.616;39.786;2023-04-02T13:37:05;99740.22;;;12.20;52.91
49627;BME280;35527;54.616;39.786;2023-04-02T13:40:12;99737.81;;;12.15;53.38
49627;BME280;35527;54.616;39.786;2023-04-02T13:43:20;99740.66;;;12.10;54.16
49627;BME280;35527;54.616;39.786;2023-04-02T13:46:26;99745.56;;;12.16;54.34
49627;BME280;35527;54.616;39.786;2023-04-02T13:49:31;99745.47;;;12.18;54.20
49627;BME280;35527;54.616;39.786;2023-04-02T13:52:34;99747.91;;;12.21;54.64
49627;BME280;35527;54.616;39.786;2023-04-02T13:55:39;99736.06;;;12.15;54.52
49627;BME280;35527;54.616;39.786;2023-04-02T13:58:45;99742.97;;;12.16;54.84
49627;BME280;35527;54.616;39.786;2023-04-02T14:01:53;99731.66;;;12.17;55.39
49627;BME280;35527;54.616;39.786;2023-04-02T14:15:30;99742.91;;;11.79;56.98
49627;BME280;35527;54.616;39.786;2023-04-02T14:29:09;99743.78;;;11.59;58.03
49627;BME280;35527;54.616;39.786;2023-04-02T14:32:39;99738.69;;;11.57;58.78
49627;BME280;35527;54.616;39.786;2023-04-02T14:36:23;99723.84;;;11.42;58.77
49627;BME280;35527;54.616;39.786;2023-04-02T14:43:22;99729.00;;;11.21;60.14
49627;BME280;35527;54.616;39.786;2023-04-02T14:46:36;99738.94;;;11.32;60.43
49627;BME280;35527;54.616;39.786;2023-04-02T14:49:41;99716.59;;;11.09;60.75
49627;BME280;35527;54.616;39.786;2023-04-02T14:52:50;99721.59;;;11.14;61.03
49627;BME280;35527;54.616;39.786;2023-04-02T14:56:00;99731.13;;;11.13;60.82
49627;BME280;35527;54.616;39.786;2023-04-02T14:59:18;99748.16;;;11.19;61.63
49627;BME280;35527;54.616;39.786;2023-04-02T15:05:47;99746.44;;;11.18;61.10
49627;BME280;35527;54.616;39.786;2023-04-02T15:09:04;99750.09;;;11.14;61.18
49627;BME280;35527;54.616;39.786;2023-04-02T15:12:21;99739.13;;;11.27;61.94
49627;BME280;35527;54.616;39.786;2023-04-02T15:15:45;99743.00;;;11.38;61.40
49627;BME280;35527;54.616;39.786;2023-04-02T15:18:51;99739.75;;;11.33;61.64
49627;BME280;35527;54.616;39.786;2023-04-02T15:28:29;99743.06;;;11.16;62.88
49627;BME280;35527;54.616;39.786;2023-04-02T15:31:37;99746.91;;;11.07;62.51
49627;BME280;35527;54.616;39.786;2023-04-02T15:38:19;99754.53;;;10.90;63.06
49627;BME280;35527;54.616;39.786;2023-04-02T15:41:26;99760.56;;;10.90;62.96
49627;BME280;35527;54.616;39.786;2023-04-02T15:44:38;99756.22;;;10.91;62.84
49627;BME280;35527;54.616;39.786;2023-04-02T15:48:04;99750.00;;;10.52;63.20
49627;BME280;35527;54.616;39.786;2023-04-02T16:01:20;99772.31;;;10.33;64.27
49627;BME280;35527;54.616;39.786;2023-04-02T16:12:17;99766.44;;;10.29;65.18
49627;BME280;35527;54.616;39.786;2023-04-02T16:15:48;99771.44;;;10.10;65.34
49627;BME280;35527;54.616;39.786;2023-04-02T16:19:02;99754.75;;;9.96;65.63
49627;BME280;35527;54.616;39.786;2023-04-02T16:22:29;99773.41;;;10.04;65.63
49627;BME280;35527;54.616;39.786;2023-04-02T16:25:43;99770.94;;;10.01;66.20
49627;BME280;35527;54.616;39.786;2023-04-02T16:39:35;99780.81;;;9.89;66.30
49627;BME280;35527;54.616;39.786;2023-04-02T16:42:48;99779.31;;;9.84;67.03
49627;BME280;35527;54.616;39.786;2023-04-02T16:50:14;99736.78;;;9.45;67.83
49627;BME280;35527;54.616;39.786;2023-04-02T17:09:48;99794.75;;;9.62;68.65
49627;BME280;35527;54.616;39.786;2023-04-02T17:13:24;99790.81;;;9.75;68.27
49627;BME280;35527;54.616;39.786;2023-04-02T17:16:44;99798.41;;;9.80;67.78
49627;BME280;35527;54.616;39.786;2023-04-02T17:19:54;99793.75;;;9.89;67.13
49627;BME280;35527;54.616;39.786;2023-04-02T17:23:00;99787.66;;;9.67;67.92
49627;BME280;35527;54.616;39.786;2023-04-02T17:26:08;99771.63;;;9.59;68.12
49627;BME280;35527;54.616;39.786;2023-04-02T17:29:19;99793.38;;;9.52;68.47
49627;BME280;35527;54.616;39.786;2023-04-02T17:32:31;99789.91;;;9.53;68.11
49627;BME280;35527;54.616;39.786;2023-04-02T17:39:22;99798.44;;;9.55;67.88
49627;BME280;35527;54.616;39.786;2023-04-02T17:46:36;99793.13;;;9.59;67.21
49627;BME280;35527;54.616;39.786;2023-04-02T18:03:33;99792.19;;;9.62;66.29
49627;BME280;35527;54.616;39.786;2023-04-02T18:10:21;99791.84;;;9.71;66.61
49627;BME280;35527;54.616;39.786;2023-04-02T18:13:40;99802.78;;;9.78;66.24
49627;BME280;35527;54.616;39.786;2023-04-02T18:17:05;99777.13;;;9.73;65.31
49627;BME280;35527;54.616;39.786;2023-04-02T18:46:49;99793.09;;;9.36;68.45
49627;BME280;35527;54.616;39.786;2023-04-02T18:50:32;99778.09;;;9.20;68.75
49627;BME280;35527;54.616;39.786;2023-04-02T18:53:31;99786.75;;;9.44;67.98
49627;BME280;35527;54.616;39.786;2023-04-02T18:56:39;99797.38;;;9.35;68.59
49627;BME280;35527;54.616;39.786;2023-04-02T18:59:53;99790.66;;;9.56;67.88
49627;BME280;35527;54.616;39.786;2023-04-02T19:03:11;99795.41;;;9.67;67.15
49627;BME280;35527;54.616;39.786;2023-04-02T19:06:22;99785.94;;;9.67;66.65
49627;BME280;35527;54.616;39.786;2023-04-02T19:09:33;99778.38;;;9.38;67.48
49627;BME280;35527;54.616;39.786;2023-04-02T19:12:37;99780.53;;;9.25;68.53
49627;BME280;35527;54.616;39.786;2023-04-02T19:25:42;99792.03;;;9.41;69.38
49627;BME280;35527;54.616;39.786;2023-04-02T19:29:22;99774.34;;;9.29;68.88
49627;BME280;35527;54.616;39.786;2023-04-02T19:35:57;99795.03;;;9.29;70.62
49627;BME280;35527;54.616;39.786;2023-04-02T19:45:38;99768.50;;;9.24;70.46
49627;BME280;35527;54.616;39.786;2023-04-02T19:51:56;99768.81;;;9.15;71.17
49627;BME280;35527;54.616;39.786;2023-04-02T19:54:59;99775.59;;;9.19;70.78
49627;BME280;35527;54.616;39.786;2023-04-02T19:58:04;99784.50;;;9.10;71.72
49627;BME280;35527;54.616;39.786;2023-04-02T20:01:14;99786.97;;;9.13;71.02
49627;BME280;35527;54.616;39.786;2023-04-02T20:04:18;99756.03;;;9.12;71.01
49627;BME280;35527;54.616;39.786;2023-04-02T20:07:24;99765.91;;;9.24;71.06
49627;BME280;35527;54.616;39.786;2023-04-02T20:10:27;99759.34;;;9.15;70.45
49627;BME280;35527;54.616;39.786;2023-04-02T20:13:30;99781.47;;;9.22;70.60
49627;BME280;35527;54.616;39.786;2023-04-02T20:16:33;99762.81;;;9.14;70.77
49627;BME280;35527;54.616;39.786;2023-04-02T20:19:38;99777.78;;;9.30;69.94
49627;BME280;35527;54.616;39.786;2023-04-02T20:22:44;99783.53;;;9.38;69.56
49627;BME280;35527;54.616;39.786;2023-04-02T20:25:55;99757.63;;;9.16;69.66
49627;BME280;35527;54.616;39.786;2023-04-02T20:29:00;99778.75;;;9.27;69.43
49627;BME280;35527;54.616;39.786;2023-04-02T20:32:03;99777.88;;;9.27;69.74
49627;BME280;35527;54.616;39.786;2023-04-02T20:35:06;99782.22;;;9.51;68.85
49627;BME280;35527;54.616;39.786;2023-04-02T20:38:09;99784.28;;;9.41;69.29
49627;BME280;35527;54.616;39.786;2023-04-02T20:41:13;99786.06;;;9.39;69.03
49627;BME280;35527;54.616;39.786;2023-04-02T20:44:20;99773.66;;;9.24;70.08
49627;BME280;35527;54.616;39.786;2023-04-02T20:47:24;99780.31;;;9.31;70.03
49627;BME280;35527;54.616;39.786;2023-04-02T20:50:28;99766.91;;;9.21;70.70
49627;BME280;35527;54.616;39.786;2023-04-02T20:53:33;99780.28;;;9.08;71.77
49627;BME280;35527;54.616;39.786;2023-04-02T20:56:42;99770.41;;;8.94;73.06
49627;BME280;35527;54.616;39.786;2023-04-02T20:59:45;99781.34;;;9.27;71.24
49627;BME280;35527;54.616;39.786;2023-04-02T21:02:49;99762.41;;;9.01;72.01
49627;BME280;35527;54.616;39.786;2023-04-02T21:05:54;99780.31;;;9.06;73.34
49627;BME280;35527;54.616;39.786;2023-04-02T21:09:00;99780.41;;;9.03;73.52
49627;BME280;35527;54.616;39.786;2023-04-02T21:12:06;99779.69;;;8.99;74.61
49627;BME280;35527;54.616;39.786;2023-04-02T21:15:12;99772.59;;;8.79;75.29
49627;BME280;35527;54.616;39.786;2023-04-02T21:18:15;99776.81;;;8.82;75.88
49627;BME280;35527;54.616;39.786;2023-04-02T21:21:21;99759.72;;;8.78;75.73
49627;BME280;35527;54.616;39.786;2023-04-02T21:24:23;99774.06;;;8.87;75.96
49627;BME280;35527;54.616;39.786;2023-04-02T21:27:28;99777.84;;;8.76;76.82
49627;BME280;35527;54.616;39.786;2023-04-02T21:30:33;99770.75;;;8.83;76.61